createdAt,value
2018-06-14T00:01:00.000Z,43.489
2018-06-14T00:11:00.000Z,43.747
2018-06-14T00:21:01.000Z,43.83
2018-06-14T00:31:00.000Z,43.815
2018-06-14T00:41:00.000Z,43.812
2018-06-14T00:51:00.000Z,43.906
2018-06-14T01:01:00.000Z,43.947
2018-06-14T01:11:00.000Z,43.978
2018-06-14T01:21:00.000Z,44.03
2018-06-14T01:31:00.000Z,44.102
2018-06-14T01:41:00.000Z,44.176
2018-06-14T01:51:00.000Z,44.261
2018-06-14T02:01:02.000Z,44.291
2018-06-14T02:11:01.000Z,44.332
2018-06-14T02:21:01.000Z,44.406
2018-06-14T02:31:01.000Z,44.489
2018-06-14T02:41:01.000Z,44.604
2018-06-14T02:51:01.000Z,44.634
2018-06-14T03:01:01.000Z,44.695
2018-06-14T03:11:01.000Z,44.715
2018-06-14T03:21:01.000Z,44.756
2018-06-14T03:31:01.000Z,44.764
2018-06-14T03:41:01.000Z,44.846
2018-06-14T03:51:01.000Z,44.834
2018-06-14T04:01:01.000Z,44.757
2018-06-14T04:11:01.000Z,44.726
2018-06-14T04:21:01.000Z,44.682
2018-06-14T04:31:01.000Z,44.553
2018-06-14T04:41:01.000Z,44.436
2018-06-14T04:51:01.000Z,44.349
2018-06-14T05:01:01.000Z,44.244
2018-06-14T05:11:01.000Z,44.193
2018-06-14T05:21:01.000Z,44.263
2018-06-14T05:31:01.000Z,44.27
2018-06-14T05:41:01.000Z,44.361
2018-06-14T05:51:01.000Z,44.306
2018-06-14T06:01:01.000Z,44.206
2018-06-14T06:11:01.000Z,44.049
2018-06-14T06:21:01.000Z,43.937
2018-06-14T06:31:01.000Z,43.746
2018-06-14T06:41:01.000Z,43.609
2018-06-14T06:51:01.000Z,43.592
2018-06-14T07:01:01.000Z,43.415
2018-06-14T07:11:01.000Z,43.144
2018-06-14T07:21:01.000Z,43.082
2018-06-14T07:31:01.000Z,42.809
2018-06-14T07:41:01.000Z,42.398
2018-06-14T07:51:01.000Z,41.696
2018-06-14T08:01:01.000Z,41.435
2018-06-14T08:11:01.000Z,41.269
2018-06-14T08:21:01.000Z,41.024
2018-06-14T08:31:01.000Z,40.82
2018-06-14T08:41:01.000Z,40.077
2018-06-14T08:51:01.000Z,40.221
2018-06-14T09:01:01.000Z,40.21
2018-06-14T09:11:01.000Z,40.125
2018-06-14T09:21:01.000Z,40.077
2018-06-14T09:31:01.000Z,38.228
2018-06-14T09:41:01.000Z,37.952
2018-06-14T09:51:01.000Z,38.671
2018-06-14T10:01:01.000Z,38.507
2018-06-14T10:11:01.000Z,37.464
2018-06-14T10:21:01.000Z,37.402
2018-06-14T10:31:02.000Z,37.541
2018-06-14T10:41:02.000Z,37.104
2018-06-14T10:51:02.000Z,37.25
2018-06-14T11:01:02.000Z,37.719
2018-06-14T11:11:02.000Z,37.831
2018-06-14T11:21:02.000Z,37.329
2018-06-14T11:31:02.000Z,36.989
2018-06-14T11:41:02.000Z,36.366
2018-06-14T11:51:02.000Z,36.997
2018-06-14T12:01:02.000Z,36.096
2018-06-14T12:11:02.000Z,37.365
2018-06-14T12:21:02.000Z,37.289
2018-06-14T12:31:02.000Z,35.466
2018-06-14T12:41:02.000Z,37.214
2018-06-14T12:51:02.000Z,36.985
2018-06-14T13:01:02.000Z,36.309
2018-06-14T13:11:02.000Z,35.608
2018-06-14T13:21:02.000Z,36.671
2018-06-14T13:31:02.000Z,36.185
2018-06-14T13:41:02.000Z,35.906
2018-06-14T13:51:02.000Z,36.866
2018-06-14T14:01:02.000Z,37.17
2018-06-14T14:11:02.000Z,37.266
2018-06-14T14:21:02.000Z,37.638
2018-06-14T14:31:02.000Z,37.833
2018-06-14T14:41:02.000Z,38.17
2018-06-14T14:51:02.000Z,38.203
2018-06-14T15:01:02.000Z,38.461
2018-06-14T15:11:02.000Z,39.041
2018-06-14T15:21:02.000Z,39.438
2018-06-14T15:31:02.000Z,39.886
2018-06-14T15:41:02.000Z,40.287
2018-06-14T15:51:02.000Z,40.811
2018-06-14T16:01:02.000Z,41.388
2018-06-14T16:11:02.000Z,42.247
2018-06-14T16:21:02.000Z,42.789
2018-06-14T16:31:02.000Z,43.073
2018-06-14T16:41:02.000Z,43.362
2018-06-14T16:51:03.000Z,44.183
2018-06-14T17:01:02.000Z,44.529
2018-06-14T17:11:02.000Z,45.021
2018-06-14T17:21:02.000Z,47.934
2018-06-14T17:31:02.000Z,46.176
2018-06-14T17:41:02.000Z,47.499
2018-06-14T17:51:02.000Z,48.291
2018-06-14T18:01:02.000Z,49.831
2018-06-14T18:11:03.000Z,49.129
2018-06-14T18:21:02.000Z,47.687
2018-06-14T18:31:03.000Z,49.431
2018-06-14T18:41:03.000Z,49.017
2018-06-14T18:51:03.000Z,50.263
2018-06-14T19:01:03.000Z,50.927
2018-06-14T19:11:03.000Z,51.079
2018-06-14T19:21:04.000Z,51.774
2018-06-14T19:31:03.000Z,51.143
2018-06-14T19:41:03.000Z,52.798
2018-06-14T19:51:03.000Z,50.502
2018-06-14T20:01:03.000Z,50.286
2018-06-14T20:11:03.000Z,50.464
2018-06-14T20:21:03.000Z,50.544
2018-06-14T20:31:03.000Z,50.405
2018-06-14T20:41:03.000Z,50.2
2018-06-14T20:51:03.000Z,49.896
2018-06-14T21:01:03.000Z,49.626
2018-06-14T21:11:03.000Z,49.571
2018-06-14T21:21:03.000Z,49.546
2018-06-14T21:31:03.000Z,49.422
2018-06-14T21:41:03.000Z,49.234
2018-06-14T21:51:03.000Z,49.132
2018-06-14T22:01:03.000Z,49.019
2018-06-14T22:11:03.000Z,48.996
2018-06-14T22:21:03.000Z,49.111
2018-06-14T22:31:03.000Z,49.065
2018-06-14T22:41:03.000Z,48.986
2018-06-14T22:51:03.000Z,48.962
2018-06-14T23:01:03.000Z,48.831
2018-06-14T23:11:03.000Z,48.838
2018-06-14T23:21:03.000Z,48.771
2018-06-14T23:31:03.000Z,48.791
2018-06-14T23:41:03.000Z,48.756
2018-06-14T23:51:03.000Z,48.776
